sensor_id;sensor_type;location;lat;lon;timestamp;pressure;altitude;pressure_sealevel;temperature;humidity
26711;BME280;18311;52.754;18.118;2023-02-08T00:00:08;103311.44;;;12.96;37.02
26711;BME280;18311;52.754;18.118;2023-02-08T00:02:41;103315.91;;;13.82;36.63
26711;BME280;18311;52.754;18.118;2023-02-08T00:05:12;103323.41;;;12.56;37.68
26711;BME280;18311;52.754;18.118;2023-02-08T00:07:43;103324.47;;;13.40;37.47
26711;BME280;18311;52.754;18.118;2023-02-08T00:10:14;103320.02;;;13.35;37.15
26711;BME280;18311;52.754;18.118;2023-02-08T00:12:44;103324.30;;;12.60;37.75
26711;BME280;18311;52.754;18.118;2023-02-08T00:15:16;103320.09;;;13.26;36.85
26711;BME280;18311;52.754;18.118;2023-02-08T00:17:47;103322.30;;;12.83;37.53
26711;BME280;18311;52.754;18.118;2023-02-08T00:20:18;103328.53;;;12.87;37.81
26711;BME280;18311;52.754;18.118;2023-02-08T00:22:49;103320.58;;;12.76;38.11
26711;BME280;18311;52.754;18.118;2023-02-08T00:25:21;103326.73;;;12.88;37.62
26711;BME280;18311;52.754;18.118;2023-02-08T00:27:52;103329.50;;;12.80;37.66
26711;BME280;18311;52.754;18.118;2023-02-08T00:30:23;103322.63;;;12.40;37.66
26711;BME280;18311;52.754;18.118;2023-02-08T00:32:53;103327.05;;;12.49;37.46
26711;BME280;18311;52.754;18.118;2023-02-08T00:35:24;103338.01;;;12.15;37.72
26711;BME280;18311;52.754;18.118;2023-02-08T00:37:55;103336.22;;;13.26;36.54
26711;BME280;18311;52.754;18.118;2023-02-08T00:40:26;103333.69;;;13.10;36.76
26711;BME280;18311;52.754;18.118;2023-02-08T00:42:57;103335.49;;;13.10;37.25
26711;BME280;18311;52.754;18.118;2023-02-08T00:45:28;103331.91;;;13.12;36.85
26711;BME280;18311;52.754;18.118;2023-02-08T00:47:59;103333.16;;;12.71;36.62
26711;BME280;18311;52.754;18.118;2023-02-08T00:50:29;103328.50;;;12.93;36.28
26711;BME280;18311;52.754;18.118;2023-02-08T00:53:00;103331.32;;;12.76;36.66
26711;BME280;18311;52.754;18.118;2023-02-08T00:55:31;103336.92;;;12.44;36.69
26711;BME280;18311;52.754;18.118;2023-02-08T00:58:03;103327.49;;;11.63;37.90
26711;BME280;18311;52.754;18.118;2023-02-08T01:00:33;103326.47;;;12.04;37.59
26711;BME280;18311;52.754;18.118;2023-02-08T01:03:04;103328.48;;;12.95;36.89
26711;BME280;18311;52.754;18.118;2023-02-08T01:05:37;103322.96;;;13.91;35.39
26711;BME280;18311;52.754;18.118;2023-02-08T01:08:09;103323.38;;;13.55;36.08
26711;BME280;18311;52.754;18.118;2023-02-08T01:10:39;103325.55;;;13.19;36.45
26711;BME280;18311;52.754;18.118;2023-02-08T01:13:11;103333.33;;;12.48;37.74
26711;BME280;18311;52.754;18.118;2023-02-08T01:15:41;103329.89;;;12.27;37.86
26711;BME280;18311;52.754;18.118;2023-02-08T01:18:12;103334.61;;;11.73;37.60
26711;BME280;18311;52.754;18.118;2023-02-08T01:20:43;103332.19;;;12.80;36.66
26711;BME280;18311;52.754;18.118;2023-02-08T01:23:13;103334.47;;;12.08;37.82
26711;BME280;18311;52.754;18.118;2023-02-08T01:25:45;103327.89;;;12.57;37.31
26711;BME280;18311;52.754;18.118;2023-02-08T01:28:16;103323.54;;;12.42;36.48
26711;BME280;18311;52.754;18.118;2023-02-08T01:30:46;103334.38;;;12.25;37.17
26711;BME280;18311;52.754;18.118;2023-02-08T01:33:17;103331.55;;;12.45;37.06
26711;BME280;18311;52.754;18.118;2023-02-08T01:35:51;103339.00;;;11.99;37.09
26711;BME280;18311;52.754;18.118;2023-02-08T01:38:22;103343.53;;;11.78;37.86
26711;BME280;18311;52.754;18.118;2023-02-08T01:40:53;103339.09;;;11.65;38.16
26711;BME280;18311;52.754;18.118;2023-02-08T01:43:29;103331.78;;;12.08;37.55
26711;BME280;18311;52.754;18.118;2023-02-08T01:46:00;103342.60;;;11.84;37.32
26711;BME280;18311;52.754;18.118;2023-02-08T01:48:34;103335.16;;;12.43;36.35
26711;BME280;18311;52.754;18.118;2023-02-08T01:51:07;103335.48;;;11.81;37.37
26711;BME280;18311;52.754;18.118;2023-02-08T01:53:39;103346.33;;;11.33;38.03
26711;BME280;18311;52.754;18.118;2023-02-08T01:56:17;103345.91;;;12.40;36.73
26711;BME280;18311;52.754;18.118;2023-02-08T01:58:50;103343.92;;;12.65;36.57
26711;BME280;18311;52.754;18.118;2023-02-08T02:01:21;103336.11;;;12.33;36.62
26711;BME280;18311;52.754;18.118;2023-02-08T02:03:52;103342.47;;;13.28;36.02
26711;BME280;18311;52.754;18.118;2023-02-08T02:06:25;103351.48;;;12.04;37.72
26711;BME280;18311;52.754;18.118;2023-02-08T02:09:10;103357.05;;;11.40;37.70
26711;BME280;18311;52.754;18.118;2023-02-08T02:11:33;103357.81;;;10.01;39.43
26711;BME280;18311;52.754;18.118;2023-02-08T02:14:05;103351.73;;;10.69;38.79
26711;BME280;18311;52.754;18.118;2023-02-08T02:16:37;103345.03;;;12.38;37.04
26711;BME280;18311;52.754;18.118;2023-02-08T02:19:23;103342.45;;;12.19;36.77
26711;BME280;18311;52.754;18.118;2023-02-08T02:22:00;103345.02;;;12.39;36.86
26711;BME280;18311;52.754;18.118;2023-02-08T02:33:55;103334.95;;;12.72;36.68
26711;BME280;18311;52.754;18.118;2023-02-08T02:35:53;103337.66;;;12.68;36.55
26711;BME280;18311;52.754;18.118;2023-02-08T02:41:48;103343.66;;;11.40;37.99
26711;BME280;18311;52.754;18.118;2023-02-08T02:47:51;103349.72;;;11.88;37.52
26711;BME280;18311;52.754;18.118;2023-02-08T02:50:29;103356.16;;;10.39;38.88
26711;BME280;18311;52.754;18.118;2023-02-08T02:53:06;103346.38;;;11.13;38.06
26711;BME280;18311;52.754;18.118;2023-02-08T03:19:44;103362.41;;;11.41;37.52
26711;BME280;18311;52.754;18.118;2023-02-08T03:22:30;103372.27;;;10.90;38.91
26711;BME280;18311;52.754;18.118;2023-02-08T03:24:58;103366.02;;;10.72;39.11
26711;BME280;18311;52.754;18.118;2023-02-08T03:27:46;103364.91;;;12.03;36.97
26711;BME280;18311;52.754;18.118;2023-02-08T03:30:25;103365.11;;;11.04;38.14
26711;BME280;18311;52.754;18.118;2023-02-08T03:35:35;103371.36;;;10.83;38.85
26711;BME280;18311;52.754;18.118;2023-02-08T03:38:07;103359.63;;;11.74;37.59
26711;BME280;18311;52.754;18.118;2023-02-08T03:40:40;103367.56;;;13.30;35.62
26711;BME280;18311;52.754;18.118;2023-02-08T03:43:14;103363.54;;;12.78;36.26
26711;BME280;18311;52.754;18.118;2023-02-08T03:45:49;103373.86;;;11.88;37.43
26711;BME280;18311;52.754;18.118;2023-02-08T03:48:20;103376.59;;;10.23;39.33
26711;BME280;18311;52.754;18.118;2023-02-08T03:50:52;103384.76;;;10.66;39.40
26711;BME280;18311;52.754;18.118;2023-02-08T03:53:25;103372.27;;;10.70;38.97
26711;BME280;18311;52.754;18.118;2023-02-08T03:55:59;103372.26;;;11.21;37.72
26711;BME280;18311;52.754;18.118;2023-02-08T03:58:41;103372.14;;;11.68;38.02
26711;BME280;18311;52.754;18.118;2023-02-08T04:01:15;103375.80;;;11.32;37.57
26711;BME280;18311;52.754;18.118;2023-02-08T04:03:46;103366.66;;;12.05;37.35
26711;BME280;18311;52.754;18.118;2023-02-08T04:06:21;103369.28;;;12.19;36.79
26711;BME280;18311;52.754;18.118;2023-02-08T04:08:52;103347.92;;;12.04;37.37
26711;BME280;18311;52.754;18.118;2023-02-08T04:11:22;103376.69;;;11.36;37.71
26711;BME280;18311;52.754;18.118;2023-02-08T04:13:53;103376.19;;;12.62;36.44
26711;BME280;18311;52.754;18.118;2023-02-08T04:16:23;103388.84;;;12.44;36.48
26711;BME280;18311;52.754;18.118;2023-02-08T04:18:54;103380.26;;;11.51;37.01
26711;BME280;18311;52.754;18.118;2023-02-08T04:21:26;103384.75;;;11.25;37.40
26711;BME280;18311;52.754;18.118;2023-02-08T04:23:57;103394.52;;;10.46;38.55
26711;BME280;18311;52.754;18.118;2023-02-08T04:26:27;103394.58;;;10.73;37.90
26711;BME280;18311;52.754;18.118;2023-02-08T04:28:58;103393.70;;;10.96;37.91
26711;BME280;18311;52.754;18.118;2023-02-08T04:31:29;103379.68;;;12.72;35.80
26711;BME280;18311;52.754;18.118;2023-02-08T04:34:00;103392.67;;;11.82;37.00
26711;BME280;18311;52.754;18.118;2023-02-08T04:36:31;103388.39;;;13.01;35.38
26711;BME280;18311;52.754;18.118;2023-02-08T04:39:02;103391.69;;;12.09;36.28
26711;BME280;18311;52.754;18.118;2023-02-08T04:41:33;103394.12;;;12.58;35.87
26711;BME280;18311;52.754;18.118;2023-02-08T04:44:03;103399.05;;;10.91;37.99
26711;BME280;18311;52.754;18.118;2023-02-08T04:46:34;103389.23;;;11.10;37.53
26711;BME280;18311;52.754;18.118;2023-02-08T04:49:05;103392.77;;;11.39;37.10
26711;BME280;18311;52.754;18.118;2023-02-08T04:51:35;103391.88;;;11.38;37.51
26711;BME280;18311;52.754;18.118;2023-02-08T04:54:06;103387.30;;;11.91;37.05
26711;BME280;18311;52.754;18.118;2023-02-08T04:56:37;103384.16;;;12.73;35.79
26711;BME280;18311;52.754;18.118;2023-02-08T04:59:07;103385.49;;;11.95;36.50
26711;BME280;18311;52.754;18.118;2023-02-08T05:01:38;103389.98;;;11.80;37.10
26711;BME280;18311;52.754;18.118;2023-02-08T05:04:09;103381.91;;;13.27;35.11
26711;BME280;18311;52.754;18.118;2023-02-08T05:06:39;103397.22;;;11.50;36.70
26711;BME280;18311;52.754;18.118;2023-02-08T05:09:11;103393.33;;;12.42;36.29
26711;BME280;18311;52.754;18.118;2023-02-08T05:11:41;103388.86;;;12.37;35.49
26711;BME280;18311;52.754;18.118;2023-02-08T05:14:12;103386.28;;;13.42;34.72
26711;BME280;18311;52.754;18.118;2023-02-08T05:16:43;103385.97;;;12.72;36.05
26711;BME280;18311;52.754;18.118;2023-02-08T05:19:13;103391.73;;;12.03;36.84
26711;BME280;18311;52.754;18.118;2023-02-08T05:21:44;103402.58;;;11.55;37.15
26711;BME280;18311;52.754;18.118;2023-02-08T05:24:16;103393.54;;;11.93;36.70
26711;BME280;18311;52.754;18.118;2023-02-08T05:26:46;103410.64;;;11.33;37.25
26711;BME280;18311;52.754;18.118;2023-02-08T05:29:17;103411.52;;;11.37;36.84
26711;BME280;18311;52.754;18.118;2023-02-08T05:31:48;103410.66;;;11.24;37.31
26711;BME280;18311;52.754;18.118;2023-02-08T05:34:18;103407.09;;;11.24;37.40
26711;BME280;18311;52.754;18.118;2023-02-08T05:36:49;103407.83;;;10.26;38.85
26711;BME280;18311;52.754;18.118;2023-02-08T05:39:20;103405.03;;;12.26;36.34
26711;BME280;18311;52.754;18.118;2023-02-08T05:41:50;103411.48;;;11.62;37.11
26711;BME280;18311;52.754;18.118;2023-02-08T05:44:22;103406.14;;;11.52;37.46
26711;BME280;18311;52.754;18.118;2023-02-08T05:46:53;103412.45;;;11.22;37.17
26711;BME280;18311;52.754;18.118;2023-02-08T05:49:24;103419.55;;;11.59;36.64
26711;BME280;18311;52.754;18.118;2023-02-08T05:51:55;103414.13;;;11.74;36.42
26711;BME280;18311;52.754;18.118;2023-02-08T05:54:26;103421.36;;;11.04;37.88
26711;BME280;18311;52.754;18.118;2023-02-08T05:56:57;103422.24;;;10.95;38.00
26711;BME280;18311;52.754;18.118;2023-02-08T05:59:27;103418.69;;;11.38;37.47
26711;BME280;18311;52.754;18.118;2023-02-08T06:01:58;103422.13;;;11.89;37.21
26711;BME280;18311;52.754;18.118;2023-02-08T06:04:30;103425.84;;;10.98;37.89
26711;BME280;18311;52.754;18.118;2023-02-08T06:07:00;103436.48;;;11.70;36.58
26711;BME280;18311;52.754;18.118;2023-02-08T06:09:31;103432.03;;;10.69;37.89
26711;BME280;18311;52.754;18.118;2023-02-08T06:12:02;103430.16;;;10.35;38.19
26711;BME280;18311;52.754;18.118;2023-02-08T06:14:33;103422.10;;;12.13;36.65
26711;BME280;18311;52.754;18.118;2023-02-08T06:17:04;103441.00;;;11.22;37.49
26711;BME280;18311;52.754;18.118;2023-02-08T06:19:34;103438.30;;;11.48;37.15
26711;BME280;18311;52.754;18.118;2023-02-08T06:22:05;103441.88;;;11.61;36.75
26711;BME280;18311;52.754;18.118;2023-02-08T06:24:35;103447.18;;;11.92;36.58
26711;BME280;18311;52.754;18.118;2023-02-08T06:27:06;103444.50;;;11.87;36.47
26711;BME280;18311;52.754;18.118;2023-02-08T06:29:37;103437.09;;;12.52;35.69
26711;BME280;18311;52.754;18.118;2023-02-08T06:32:07;103446.30;;;11.85;36.89
26711;BME280;18311;52.754;18.118;2023-02-08T06:34:38;103444.45;;;12.12;35.72
26711;BME280;18311;52.754;18.118;2023-02-08T06:37:09;103438.03;;;12.45;35.53
26711;BME280;18311;52.754;18.118;2023-02-08T06:39:39;103444.41;;;12.18;35.59
26711;BME280;18311;52.754;18.118;2023-02-08T06:42:10;103449.86;;;11.95;36.13
26711;BME280;18311;52.754;18.118;2023-02-08T06:44:41;103447.18;;;11.92;36.20
26711;BME280;18311;52.754;18.118;2023-02-08T06:47:13;103447.19;;;11.88;35.87
26711;BME280;18311;52.754;18.118;2023-02-08T06:49:45;103447.02;;;12.38;35.36
26711;BME280;18311;52.754;18.118;2023-02-08T06:52:16;103434.55;;;12.24;35.52
26711;BME280;18311;52.754;18.118;2023-02-08T06:54:47;103436.93;;;12.78;34.86
26711;BME280;18311;52.754;18.118;2023-02-08T06:57:18;103431.62;;;12.71;34.86
26711;BME280;18311;52.754;18.118;2023-02-08T06:59:48;103434.54;;;12.27;35.41
26711;BME280;18311;52.754;18.118;2023-02-08T07:02:20;103447.01;;;12.42;35.25
26711;BME280;18311;52.754;18.118;2023-02-08T07:04:51;103443.41;;;12.43;35.18
26711;BME280;18311;52.754;18.118;2023-02-08T07:07:23;103451.97;;;13.06;34.61
26711;BME280;18311;52.754;18.118;2023-02-08T07:09:53;103444.13;;;12.72;34.87
26711;BME280;18311;52.754;18.118;2023-02-08T07:12:25;103448.62;;;12.70;35.03
26711;BME280;18311;52.754;18.118;2023-02-08T07:14:57;103449.27;;;13.07;34.51
26711;BME280;18311;52.754;18.118;2023-02-08T07:17:28;103455.62;;;12.94;34.52
26711;BME280;18311;52.754;18.118;2023-02-08T07:19:58;103453.04;;;12.80;35.01
26711;BME280;18311;52.754;18.118;2023-02-08T07:22:30;103457.53;;;12.78;34.69
26711;BME280;18311;52.754;18.118;2023-02-08T07:25:00;103451.38;;;12.62;35.22
26711;BME280;18311;52.754;18.118;2023-02-08T07:27:33;103463.05;;;12.52;35.25
26711;BME280;18311;52.754;18.118;2023-02-08T07:30:04;103460.20;;;12.81;34.89
26711;BME280;18311;52.754;18.118;2023-02-08T07:32:37;103461.69;;;13.20;34.33
26711;BME280;18311;52.754;18.118;2023-02-08T07:35:08;103464.31;;;13.31;34.20
26711;BME280;18311;52.754;18.118;2023-02-08T07:37:39;103455.36;;;13.26;34.14
26711;BME280;18311;52.754;18.118;2023-02-08T07:40:10;103454.76;;;12.92;34.51
26711;BME280;18311;52.754;18.118;2023-02-08T07:42:41;103450.09;;;13.14;34.40
26711;BME280;18311;52.754;18.118;2023-02-08T07:45:11;103449.38;;;12.93;34.34
26711;BME280;18311;52.754;18.118;2023-02-08T07:47:42;103452.25;;;12.62;35.11
26711;BME280;18311;52.754;18.118;2023-02-08T07:50:15;103442.44;;;12.60;35.02
26711;BME280;18311;52.754;18.118;2023-02-08T07:52:46;103453.13;;;12.64;35.03
26711;BME280;18311;52.754;18.118;2023-02-08T07:55:16;103439.44;;;13.01;34.36
26711;BME280;18311;52.754;18.118;2023-02-08T07:57:49;103452.64;;;11.11;36.65
26711;BME280;18311;52.754;18.118;2023-02-08T08:00:20;103449.03;;;11.09;37.02
26711;BME280;18311;52.754;18.118;2023-02-08T08:02:52;103448.70;;;12.56;35.67
26711;BME280;18311;52.754;18.118;2023-02-08T08:05:23;103444.50;;;11.92;35.99
26711;BME280;18311;52.754;18.118;2023-02-08T08:07:54;103449.95;;;11.24;36.87
26711;BME280;18311;52.754;18.118;2023-02-08T08:10:24;103441.70;;;12.28;35.97
26711;BME280;18311;52.754;18.118;2023-02-08T08:12:55;103454.06;;;12.60;35.27
26711;BME280;18311;52.754;18.118;2023-02-08T08:15:26;103448.42;;;13.00;34.66
26711;BME280;18311;52.754;18.118;2023-02-08T08:17:58;103454.66;;;13.06;34.79
26711;BME280;18311;52.754;18.118;2023-02-08T08:20:28;103451.58;;;13.53;34.14
26711;BME280;18311;52.754;18.118;2023-02-08T08:22:59;103446.52;;;13.15;34.63
26711;BME280;18311;52.754;18.118;2023-02-08T08:25:30;103452.95;;;12.94;34.62
26711;BME280;18311;52.754;18.118;2023-02-08T08:28:01;103454.94;;;12.61;34.72
26711;BME280;18311;52.754;18.118;2023-02-08T08:30:32;103466.69;;;12.40;35.76
26711;BME280;18311;52.754;18.118;2023-02-08T08:33:02;103463.14;;;12.32;35.57
26711;BME280;18311;52.754;18.118;2023-02-08T08:35:33;103476.60;;;12.22;35.95
26711;BME280;18311;52.754;18.118;2023-02-08T08:38:04;103467.07;;;13.19;34.66
26711;BME280;18311;52.754;18.118;2023-02-08T08:40:36;103465.34;;;13.12;34.67
26711;BME280;18311;52.754;18.118;2023-02-08T08:43:09;103455.34;;;13.35;34.49
26711;BME280;18311;52.754;18.118;2023-02-08T08:45:40;103461.59;;;13.37;34.23
26711;BME280;18311;52.754;18.118;2023-02-08T08:48:12;103474.44;;;12.92;34.93
26711;BME280;18311;52.754;18.118;2023-02-08T08:50:42;103480.28;;;11.92;35.79
26711;BME280;18311;52.754;18.118;2023-02-08T08:53:13;103468.11;;;13.02;34.71
26711;BME280;18311;52.754;18.118;2023-02-08T08:55:44;103469.81;;;13.16;34.51
26711;BME280;18311;52.754;18.118;2023-02-08T08:58:14;103470.80;;;12.99;34.69
26711;BME280;18311;52.754;18.118;2023-02-08T09:00:45;103467.92;;;13.24;34.30
26711;BME280;18311;52.754;18.118;2023-02-08T09:03:16;103473.35;;;13.21;34.61
26711;BME280;18311;52.754;18.118;2023-02-08T09:05:49;103467.48;;;12.63;35.28
26711;BME280;18311;52.754;18.118;2023-02-08T09:08:20;103476.33;;;12.81;34.75
26711;BME280;18311;52.754;18.118;2023-02-08T09:10:50;103483.18;;;13.22;34.45
26711;BME280;18311;52.754;18.118;2023-02-08T09:13:21;103483.10;;;13.36;34.31
26711;BME280;18311;52.754;18.118;2023-02-08T09:15:52;103478.75;;;14.12;33.59
26711;BME280;18311;52.754;18.118;2023-02-08T09:18:23;103486.49;;;13.59;34.03
26711;BME280;18311;52.754;18.118;2023-02-08T09:20:53;103482.23;;;13.32;34.58
26711;BME280;18311;52.754;18.118;2023-02-08T09:23:24;103483.73;;;13.64;33.97
26711;BME280;18311;52.754;18.118;2023-02-08T09:25:54;103484.20;;;14.05;33.67
26711;BME280;18311;52.754;18.118;2023-02-08T09:28:25;103474.23;;;14.14;33.44
26711;BME280;18311;52.754;18.118;2023-02-08T09:30:56;103489.95;;;13.71;34.11
26711;BME280;18311;52.754;18.118;2023-02-08T09:33:29;103483.82;;;14.37;32.90
26711;BME280;18311;52.754;18.118;2023-02-08T09:35:59;103486.09;;;15.28;31.57
26711;BME280;18311;52.754;18.118;2023-02-08T09:38:31;103480.64;;;17.11;29.61
26711;BME280;18311;52.754;18.118;2023-02-08T09:46:39;103473.68;;;20.24;26.55
26711;BME280;18311;52.754;18.118;2023-02-08T09:49:32;103468.38;;;22.54;24.57
26711;BME280;18311;52.754;18.118;2023-02-08T09:51:55;103478.80;;;23.55;23.76
26711;BME280;18311;52.754;18.118;2023-02-08T09:57:03;103480.92;;;24.35;22.67
26711;BME280;18311;52.754;18.118;2023-02-08T09:59:37;103471.47;;;23.91;22.97
26711;BME280;18311;52.754;18.118;2023-02-08T10:02:29;103468.22;;;24.49;22.85
26711;BME280;18311;52.754;18.118;2023-02-08T10:05:06;103467.31;;;25.59;21.57
26711;BME280;18311;52.754;18.118;2023-02-08T10:07:38;103465.80;;;24.61;22.28
26711;BME280;18311;52.754;18.118;2023-02-08T10:18:17;103456.55;;;25.70;21.53
26711;BME280;18311;52.754;18.118;2023-02-08T10:32:14;103450.83;;;24.98;22.04
26711;BME280;18311;52.754;18.118;2023-02-08T10:34:46;103448.48;;;24.92;22.17
26711;BME280;18311;52.754;18.118;2023-02-08T10:37:19;103452.25;;;24.42;22.50
26711;BME280;18311;52.754;18.118;2023-02-08T10:39:51;103460.92;;;22.77;23.67
26711;BME280;18311;52.754;18.118;2023-02-08T10:42:23;103458.05;;;22.97;23.74
26711;BME280;18311;52.754;18.118;2023-02-08T10:47:54;103454.81;;;21.74;25.08
26711;BME280;18311;52.754;18.118;2023-02-08T10:50:34;103465.45;;;20.94;25.47
26711;BME280;18311;52.754;18.118;2023-02-08T10:53:08;103456.66;;;21.53;25.34
26711;BME280;18311;52.754;18.118;2023-02-08T10:55:40;103451.76;;;21.81;24.67
26711;BME280;18311;52.754;18.118;2023-02-08T10:58:17;103448.73;;;22.84;23.92
26711;BME280;18311;52.754;18.118;2023-02-08T11:00:48;103444.92;;;22.31;23.93
26711;BME280;18311;52.754;18.118;2023-02-08T11:03:27;103435.28;;;22.43;24.39
26711;BME280;18311;52.754;18.118;2023-02-08T11:05:59;103433.47;;;22.04;24.49
26711;BME280;18311;52.754;18.118;2023-02-08T11:08:31;103429.96;;;22.21;24.45
26711;BME280;18311;52.754;18.118;2023-02-08T11:11:06;103436.53;;;21.96;24.98
26711;BME280;18311;52.754;18.118;2023-02-08T11:13:45;103441.64;;;21.22;25.60
26711;BME280;18311;52.754;18.118;2023-02-08T11:16:25;103440.60;;;21.46;25.54
26711;BME280;18311;52.754;18.118;2023-02-08T11:18:58;103434.11;;;21.90;25.77
26711;BME280;18311;52.754;18.118;2023-02-08T11:21:36;103427.48;;;21.96;24.80
26711;BME280;18311;52.754;18.118;2023-02-08T11:24:31;103433.69;;;21.38;25.57
26711;BME280;18311;52.754;18.118;2023-02-08T11:26:56;103420.86;;;21.62;24.94
26711;BME280;18311;52.754;18.118;2023-02-08T11:29:29;103424.08;;;21.51;25.75
26711;BME280;18311;52.754;18.118;2023-02-08T11:32:02;103427.38;;;21.78;25.95
26711;BME280;18311;52.754;18.118;2023-02-08T11:34:37;103432.62;;;20.77;26.70
26711;BME280;18311;52.754;18.118;2023-02-08T11:39:54;103421.88;;;21.59;25.88
26711;BME280;18311;52.754;18.118;2023-02-08T11:42:29;103420.86;;;20.77;26.66
26711;BME280;18311;52.754;18.118;2023-02-08T11:45:00;103419.77;;;20.59;26.65
26711;BME280;18311;52.754;18.118;2023-02-08T11:47:36;103412.83;;;20.73;26.35
26711;BME280;18311;52.754;18.118;2023-02-08T11:50:06;103422.05;;;20.91;26.43
26711;BME280;18311;52.754;18.118;2023-02-08T11:52:40;103410.59;;;21.48;26.35
26711;BME280;18311;52.754;18.118;2023-02-08T12:00:38;103398.08;;;20.11;26.77
26711;BME280;18311;52.754;18.118;2023-02-08T12:03:15;103391.73;;;20.11;27.26
26711;BME280;18311;52.754;18.118;2023-02-08T12:12:13;103407.42;;;20.50;26.62
26711;BME280;18311;52.754;18.118;2023-02-08T12:20:40;103412.27;;;19.69;27.48
26711;BME280;18311;52.754;18.118;2023-02-08T12:23:28;103402.64;;;19.10;27.82
26711;BME280;18311;52.754;18.118;2023-02-08T12:31:51;103386.13;;;19.92;27.86
26711;BME280;18311;52.754;18.118;2023-02-08T12:43:29;103387.09;;;19.91;27.79
26711;BME280;18311;52.754;18.118;2023-02-08T12:46:10;103378.06;;;19.90;27.45
26711;BME280;18311;52.754;18.118;2023-02-08T12:49:03;103379.92;;;19.13;28.31
26711;BME280;18311;52.754;18.118;2023-02-08T12:54:41;103384.23;;;20.17;27.92
26711;BME280;18311;52.754;18.118;2023-02-08T12:57:15;103388.24;;;19.58;27.80
26711;BME280;18311;52.754;18.118;2023-02-08T12:59:58;103393.14;;;19.74;27.85
26711;BME280;18311;52.754;18.118;2023-02-08T13:05:19;103377.23;;;19.63;27.99
26711;BME280;18311;52.754;18.118;2023-02-08T13:08:07;103385.10;;;19.46;28.50
26711;BME280;18311;52.754;18.118;2023-02-08T13:10:50;103383.13;;;19.99;28.25
26711;BME280;18311;52.754;18.118;2023-02-08T13:13:30;103386.61;;;19.29;28.23
26711;BME280;18311;52.754;18.118;2023-02-08T13:16:00;103381.00;;;19.34;28.67
26711;BME280;18311;52.754;18.118;2023-02-08T13:18:46;103373.87;;;19.82;28.47
26711;BME280;18311;52.754;18.118;2023-02-08T13:21:15;103381.17;;;18.47;29.48
26711;BME280;18311;52.754;18.118;2023-02-08T13:23:48;103352.11;;;19.33;28.85
26711;BME280;18311;52.754;18.118;2023-02-08T13:26:27;103352.11;;;19.33;28.85
26711;BME280;18311;52.754;18.118;2023-02-08T13:29:02;103373.84;;;19.56;28.25
26711;BME280;18311;52.754;18.118;2023-02-08T13:31:40;103373.88;;;18.49;29.24
26711;BME280;18311;52.754;18.118;2023-02-08T13:34:35;103357.02;;;18.45;29.55
26711;BME280;18311;52.754;18.118;2023-02-08T13:37:21;103357.02;;;18.40;29.30
26711;BME280;18311;52.754;18.118;2023-02-08T13:40:16;103359.94;;;18.34;29.59
26711;BME280;18311;52.754;18.118;2023-02-08T13:42:36;103360.47;;;18.45;29.46
26711;BME280;18311;52.754;18.118;2023-02-08T13:45:09;103360.47;;;18.45;29.46
26711;BME280;18311;52.754;18.118;2023-02-08T13:47:47;103352.67;;;18.06;30.01
26711;BME280;18311;52.754;18.118;2023-02-08T13:53:11;103354.70;;;17.66;30.23
26711;BME280;18311;52.754;18.118;2023-02-08T13:55:57;103356.48;;;17.67;30.07
26711;BME280;18311;52.754;18.118;2023-02-08T13:58:37;103354.45;;;17.44;30.62
26711;BME280;18311;52.754;18.118;2023-02-08T14:01:20;103356.13;;;17.80;30.89
26711;BME280;18311;52.754;18.118;2023-02-08T14:04:14;103354.63;;;18.01;30.34
26711;BME280;18311;52.754;18.118;2023-02-08T14:06:56;103352.55;;;17.79;30.86
26711;BME280;18311;52.754;18.118;2023-02-08T14:09:46;103351.20;;;18.24;30.10
26711;BME280;18311;52.754;18.118;2023-02-08T14:12:42;103351.47;;;17.53;31.26
26711;BME280;18311;52.754;18.118;2023-02-08T14:17:51;103345.22;;;17.51;31.25
26711;BME280;18311;52.754;18.118;2023-02-08T14:20:31;103343.06;;;16.61;32.30
26711;BME280;18311;52.754;18.118;2023-02-08T14:23:05;103340.92;;;17.44;31.23
26711;BME280;18311;52.754;18.118;2023-02-08T14:25:46;103342.75;;;16.73;32.04
26711;BME280;18311;52.754;18.118;2023-02-08T14:28:29;103341.54;;;16.49;31.92
26711;BME280;18311;52.754;18.118;2023-02-08T14:31:01;103339.59;;;16.93;31.89
26711;BME280;18311;52.754;18.118;2023-02-08T14:33:36;103334.81;;;17.03;31.94
26711;BME280;18311;52.754;18.118;2023-02-08T14:36:21;103334.25;;;16.90;32.06
26711;BME280;18311;52.754;18.118;2023-02-08T14:38:53;103324.08;;;16.64;32.45
26711;BME280;18311;52.754;18.118;2023-02-08T14:41:46;103325.99;;;15.81;33.14
26711;BME280;18311;52.754;18.118;2023-02-08T14:50:24;103308.56;;;15.07;33.73
26711;BME280;18311;52.754;18.118;2023-02-08T14:53:03;103305.92;;;15.94;32.79
26711;BME280;18311;52.754;18.118;2023-02-08T14:55:53;103304.64;;;15.68;33.23
26711;BME280;18311;52.754;18.118;2023-02-08T14:58:30;103303.55;;;15.34;33.75
26711;BME280;18311;52.754;18.118;2023-02-08T15:04:14;103298.77;;;15.48;33.50
26711;BME280;18311;52.754;18.118;2023-02-08T15:06:57;103302.23;;;15.55;33.25
26711;BME280;18311;52.754;18.118;2023-02-08T15:09:34;103298.89;;;14.95;34.35
26711;BME280;18311;52.754;18.118;2023-02-08T15:14:48;103263.05;;;15.37;33.84
26711;BME280;18311;52.754;18.118;2023-02-08T15:20:03;103292.39;;;15.07;34.53
26711;BME280;18311;52.754;18.118;2023-02-08T15:22:38;103286.58;;;15.28;33.80
26711;BME280;18311;52.754;18.118;2023-02-08T15:25:21;103287.24;;;14.40;35.21